Time;durP1;ratioP1;P1;durP2;ratioP2;P2;SDS_P1;SDS_P2;PMS_P1;PMS_P2;Temp;Humidity;BMP_temperature;BMP_pressure;BME280_temperature;BME280_humidity;BME280_pressure;Samples;Min_cycle;Max_cycle;Signal;HPM_P1;HPM_P2
2021/04/25 00:00:16;;;;;;;10.10;5.90;;;8.30;47.00;;;;;;5001585;28;20408;-57
2021/04/25 00:02:42;;;;;;;13.50;6.53;;;8.20;46.90;;;;;;4991676;28;20956;-58
2021/04/25 00:05:10;;;;;;;8.93;6.10;;;8.20;46.90;;;;;;5009140;28;20447;-58
2021/04/25 00:07:36;;;;;;;11.00;5.60;;;8.10;47.00;;;;;;5007914;28;20876;-57
2021/04/25 00:10:04;;;;;;;12.37;6.20;;;8.10;47.20;;;;;;4995815;28;20456;-58
2021/04/25 00:12:30;;;;;;;9.70;5.47;;;8.00;47.20;;;;;;4992371;28;20408;-58
2021/04/25 00:14:56;;;;;;;8.73;6.13;;;7.90;47.10;;;;;;5003040;28;20847;-58
2021/04/25 00:17:21;;;;;;;8.83;4.97;;;7.90;47.00;;;;;;5008496;28;20200;-57
2021/04/25 00:19:47;;;;;;;7.80;4.50;;;7.90;47.10;;;;;;5008925;28;20215;-58
2021/04/25 00:22:13;;;;;;;10.50;4.70;;;7.80;47.10;;;;;;5004787;28;20252;-58
2021/04/25 00:24:39;;;;;;;15.77;5.03;;;7.80;47.10;;;;;;4992891;28;20216;-58
2021/04/25 00:27:04;;;;;;;9.03;5.30;;;7.70;47.10;;;;;;5004110;28;20684;-58
2021/04/25 00:29:30;;;;;;;6.53;4.50;;;7.70;47.00;;;;;;4991567;28;20193;-58
2021/04/25 00:31:56;;;;;;;8.37;5.13;;;7.70;47.00;;;;;;4991516;28;20173;-59
2021/04/25 00:34:21;;;;;;;8.30;4.60;;;7.60;47.20;;;;;;4995833;28;20231;-58
2021/04/25 00:36:48;;;;;;;11.40;5.07;;;7.60;47.50;;;;;;5005900;28;20208;-58
2021/04/25 00:39:13;;;;;;;18.53;6.50;;;7.50;47.60;;;;;;5008335;28;20267;-59
2021/04/25 00:41:39;;;;;;;11.00;5.87;;;7.50;47.80;;;;;;5009628;28;20515;-58
2021/04/25 00:44:08;;;;;;;6.60;5.00;;;7.40;48.00;;;;;;5010576;28;20172;-58
2021/04/25 00:46:34;;;;;;;7.17;4.60;;;7.40;48.30;;;;;;5001697;28;20224;-57
2021/04/25 00:49:00;;;;;;;12.23;5.10;;;7.30;48.40;;;;;;5003663;28;20836;-57
2021/04/25 00:51:26;;;;;;;11.87;5.53;;;7.30;48.30;;;;;;5012020;28;21119;-59
2021/04/25 00:53:52;;;;;;;11.93;5.30;;;7.30;48.30;;;;;;5001992;28;20189;-56
2021/04/25 00:56:18;;;;;;;13.63;5.80;;;7.20;48.20;;;;;;5004039;28;20201;-57
2021/04/25 00:58:44;;;;;;;8.93;5.97;;;7.20;48.30;;;;;;5008246;28;21112;-58
2021/04/25 01:01:10;;;;;;;9.03;5.60;;;7.20;48.60;;;;;;5009799;28;20435;-58
2021/04/25 01:03:36;;;;;;;12.50;5.10;;;7.10;48.60;;;;;;4995844;28;20439;-58
2021/04/25 01:06:02;;;;;;;8.23;5.03;;;7.10;48.60;;;;;;5003837;28;20180;-58
2021/04/25 01:08:30;;;;;;;10.73;4.73;;;7.00;48.60;;;;;;5010217;28;20172;-58
2021/04/25 01:10:56;;;;;;;10.03;5.53;;;7.00;48.80;;;;;;5010308;28;20450;-58
2021/04/25 01:13:21;;;;;;;7.67;4.70;;;7.00;49.00;;;;;;5000583;28;20425;-57
2021/04/25 01:15:47;;;;;;;19.33;5.80;;;6.90;48.90;;;;;;5008073;28;20556;-58
2021/04/25 01:18:13;;;;;;;6.70;4.57;;;6.90;48.90;;;;;;5009532;28;20324;-57
2021/04/25 01:20:41;;;;;;;7.50;4.90;;;6.90;49.00;;;;;;5003250;28;20203;-57
2021/04/25 01:23:07;;;;;;;11.90;5.57;;;6.80;49.20;;;;;;5010053;28;20327;-57
2021/04/25 01:25:33;;;;;;;14.57;5.43;;;6.80;49.50;;;;;;5003544;28;20933;-57
2021/04/25 01:27:58;;;;;;;10.33;5.53;;;6.70;49.50;;;;;;4998359;28;20566;-58
2021/04/25 01:30:27;;;;;;;14.63;6.00;;;6.60;49.70;;;;;;4990560;28;20280;-57
2021/04/25 01:32:54;;;;;;;9.77;5.20;;;6.60;49.80;;;;;;5002610;28;20311;-57
2021/04/25 01:35:23;;;;;;;6.90;5.00;;;6.50;50.00;;;;;;5011934;28;20438;-58
2021/04/25 01:37:51;;;;;;;9.93;4.80;;;6.50;50.30;;;;;;5010344;28;20565;-58
2021/04/25 01:40:18;;;;;;;9.93;6.00;;;6.40;50.40;;;;;;4994297;28;20405;-58
2021/04/25 01:42:44;;;;;;;9.73;5.43;;;6.40;50.80;;;;;;4994646;28;20412;-58
2021/04/25 01:45:16;;;;;;;11.13;5.53;;;6.40;51.10;;;;;;4996745;28;20944;-57
2021/04/25 01:47:46;;;;;;;7.83;5.50;;;6.40;51.40;;;;;;5007709;28;20850;-58
2021/04/25 01:50:12;;;;;;;7.30;5.37;;;6.40;52.00;;;;;;5008676;28;20459;-59
2021/04/25 01:52:39;;;;;;;12.30;5.80;;;6.40;51.50;;;;;;5013672;28;20399;-58
2021/04/25 01:55:05;;;;;;;9.43;5.10;;;6.40;51.70;;;;;;5008553;28;20439;-57
2021/04/25 01:57:31;;;;;;;8.27;5.37;;;6.40;51.90;;;;;;5011838;28;20458;-58
2021/04/25 01:59:57;;;;;;;11.97;5.47;;;6.30;52.40;;;;;;5003534;28;20425;-59
2021/04/25 02:02:22;;;;;;;8.40;5.47;;;6.30;52.50;;;;;;4998717;28;20264;-59
2021/04/25 02:04:48;;;;;;;10.67;5.23;;;6.30;53.00;;;;;;5011398;28;20185;-55
2021/04/25 02:07:14;;;;;;;14.97;6.00;;;6.20;53.10;;;;;;5010160;28;20259;-59
2021/04/25 02:09:39;;;;;;;16.90;7.10;;;6.20;53.20;;;;;;5002944;28;20205;-58
2021/04/25 02:12:06;;;;;;;13.50;6.17;;;6.20;53.40;;;;;;5009847;28;20173;-57
2021/04/25 02:14:31;;;;;;;13.20;7.20;;;6.10;53.50;;;;;;5009220;28;20630;-59
2021/04/25 02:16:57;;;;;;;8.73;6.20;;;6.10;53.90;;;;;;5008251;28;20451;-58
2021/04/25 02:19:23;;;;;;;14.33;5.97;;;6.10;54.00;;;;;;5007815;28;20204;-58
2021/04/25 02:21:48;;;;;;;7.73;5.53;;;6.00;55.00;;;;;;5013207;28;20659;-57
2021/04/25 02:24:14;;;;;;;9.87;6.17;;;6.00;55.10;;;;;;5011990;28;20182;-58
2021/04/25 02:26:39;;;;;;;13.50;6.23;;;6.00;55.50;;;;;;5004323;28;20592;-59
2021/04/25 02:29:05;;;;;;;15.83;6.70;;;5.90;55.60;;;;;;5009428;28;20192;-58
2021/04/25 02:31:31;;;;;;;9.57;6.07;;;5.90;55.90;;;;;;5005914;28;20673;-57
2021/04/25 02:33:57;;;;;;;10.57;5.80;;;5.80;56.30;;;;;;5005324;28;20170;-58
2021/04/25 02:36:22;;;;;;;10.73;6.60;;;5.80;57.00;;;;;;4996717;28;20192;-58
2021/04/25 02:38:48;;;;;;;10.33;5.70;;;5.80;57.30;;;;;;5013226;28;20164;-58
2021/04/25 02:41:14;;;;;;;20.63;5.70;;;5.70;57.80;;;;;;5012794;28;20169;-58
2021/04/25 02:43:39;;;;;;;9.57;6.07;;;5.70;58.40;;;;;;5009196;28;20821;-58
2021/04/25 02:46:05;;;;;;;11.23;7.27;;;5.70;59.10;;;;;;4999312;28;20181;-58
2021/04/25 02:48:31;;;;;;;10.07;6.47;;;5.60;59.00;;;;;;4999566;28;20181;-59
2021/04/25 02:50:56;;;;;;;8.83;6.00;;;5.60;59.50;;;;;;4993442;28;20693;-58
2021/04/25 02:53:22;;;;;;;11.60;5.80;;;5.60;59.90;;;;;;4992502;28;20173;-58
2021/04/25 02:55:48;;;;;;;10.33;6.23;;;5.60;60.70;;;;;;5002795;28;20235;-57
2021/04/25 02:58:13;;;;;;;14.40;6.97;;;5.60;61.50;;;;;;5003913;28;20557;-57
2021/04/25 03:00:39;;;;;;;13.60;6.57;;;5.50;61.30;;;;;;5012306;28;20692;-57
2021/04/25 03:03:05;;;;;;;12.90;6.70;;;5.50;61.90;;;;;;5004403;28;20187;-58
2021/04/25 03:05:31;;;;;;;13.20;5.93;;;5.50;62.20;;;;;;5009790;28;20675;-58
2021/04/25 03:07:57;;;;;;;11.17;5.90;;;5.50;62.90;;;;;;5003256;28;20537;-57
2021/04/25 03:10:24;;;;;;;9.70;5.57;;;5.50;62.50;;;;;;5005763;28;20499;-58
2021/04/25 03:12:50;;;;;;;10.93;5.40;;;5.50;62.60;;;;;;4992820;28;20184;-57
2021/04/25 03:15:20;;;;;;;7.60;5.87;;;5.50;62.80;;;;;;4992372;28;20400;-58
2021/04/25 03:17:47;;;;;;;30.33;6.73;;;5.50;62.80;;;;;;4995019;28;20659;-57
2021/04/25 03:20:15;;;;;;;11.40;6.63;;;5.50;63.70;;;;;;5007120;28;20530;-58
2021/04/25 03:22:40;;;;;;;11.20;7.23;;;5.50;64.10;;;;;;5010902;28;20427;-58
2021/04/25 03:25:07;;;;;;;9.10;5.77;;;5.40;63.20;;;;;;5001759;28;20434;-58
2021/04/25 03:27:33;;;;;;;14.20;6.70;;;5.40;63.20;;;;;;5003960;28;20208;-59
2021/04/25 03:29:59;;;;;;;13.20;6.93;;;5.40;63.50;;;;;;5009776;28;20450;-57
2021/04/25 03:32:25;;;;;;;9.00;6.00;;;5.30;64.80;;;;;;5004139;28;20196;-59
2021/04/25 03:34:51;;;;;;;12.27;6.30;;;5.30;64.60;;;;;;5008471;28;20548;-58
2021/04/25 03:37:17;;;;;;;9.43;5.87;;;5.30;64.30;;;;;;4995993;28;20507;-59
2021/04/25 03:39:42;;;;;;;10.73;6.10;;;5.20;65.00;;;;;;4991832;28;20412;-58
2021/04/25 03:42:08;;;;;;;13.17;8.07;;;5.20;65.10;;;;;;5009220;28;20191;-58
2021/04/25 03:44:34;;;;;;;9.60;6.10;;;5.20;65.70;;;;;;5005894;28;20239;-58
2021/04/25 03:47:00;;;;;;;11.10;6.97;;;5.10;66.80;;;;;;5000748;28;20473;-58
2021/04/25 03:49:25;;;;;;;14.40;6.30;;;5.10;66.80;;;;;;5000201;28;20743;-58
2021/04/25 03:51:55;;;;;;;9.90;5.57;;;5.10;66.60;;;;;;5021616;28;20199;-57
2021/04/25 03:54:21;;;;;;;14.37;6.73;;;5.00;66.80;;;;;;4998163;28;20672;-58
2021/04/25 03:56:47;;;;;;;15.63;6.30;;;5.00;68.20;;;;;;5005607;28;20819;-56
2021/04/25 03:59:13;;;;;;;12.20;6.20;;;5.00;68.00;;;;;;5003983;28;20928;-58
2021/04/25 04:01:38;;;;;;;15.23;7.40;;;4.90;67.70;;;;;;5002758;28;20188;-58
2021/04/25 04:04:05;;;;;;;11.50;6.20;;;4.90;68.20;;;;;;5007154;28;20278;-58
2021/04/25 04:06:30;;;;;;;10.17;6.13;;;4.80;68.80;;;;;;5010072;28;20214;-59
2021/04/25 04:08:56;;;;;;;14.60;7.33;;;4.80;69.80;;;;;;5009330;28;20431;-57
2021/04/25 04:11:22;;;;;;;14.33;6.93;;;4.70;70.80;;;;;;4994205;28;20458;-57
2021/04/25 04:13:48;;;;;;;12.27;6.27;;;4.70;71.40;;;;;;4993608;28;20184;-56
2021/04/25 04:16:16;;;;;;;10.70;6.00;;;4.70;72.20;;;;;;5003683;28;21925;-59
2021/04/25 04:18:41;;;;;;;12.00;6.60;;;4.60;72.70;;;;;;5008199;28;20230;-57
2021/04/25 04:21:07;;;;;;;18.10;6.57;;;4.60;73.50;;;;;;5008744;28;20494;-58
2021/04/25 04:23:33;;;;;;;12.57;6.23;;;4.60;74.00;;;;;;5009376;28;20675;-58
2021/04/25 04:25:58;;;;;;;15.33;6.07;;;4.60;73.50;;;;;;5002195;28;20215;-58
2021/04/25 04:28:24;;;;;;;12.43;6.30;;;4.60;73.50;;;;;;5008272;28;20187;-58
2021/04/25 04:30:50;;;;;;;9.87;6.27;;;4.60;73.80;;;;;;5009617;28;20203;-58
2021/04/25 04:33:15;;;;;;;10.17;6.93;;;4.60;75.00;;;;;;5002055;28;20173;-57
2021/04/25 04:35:41;;;;;;;12.30;7.03;;;4.60;74.40;;;;;;5008349;28;20234;-58
2021/04/25 04:38:07;;;;;;;13.43;6.70;;;4.60;75.30;;;;;;5007907;28;20204;-57
2021/04/25 04:40:32;;;;;;;12.27;6.83;;;4.60;75.20;;;;;;5007842;28;20717;-58
2021/04/25 04:42:58;;;;;;;11.57;6.17;;;4.70;74.80;;;;;;5010456;28;20198;-58
2021/04/25 04:45:23;;;;;;;13.83;5.90;;;4.70;74.60;;;;;;5001165;28;20221;-60
2021/04/25 04:47:49;;;;;;;11.07;6.97;;;4.70;75.50;;;;;;4994792;28;20211;-57
2021/04/25 04:50:16;;;;;;;10.37;6.67;;;4.70;74.40;;;;;;5009514;28;20680;-58
2021/04/25 04:52:44;;;;;;;16.87;7.50;;;4.70;74.70;;;;;;5009614;28;20180;-58
2021/04/25 04:55:10;;;;;;;20.40;7.10;;;4.70;74.40;;;;;;5006179;28;20428;-58
2021/04/25 04:57:36;;;;;;;9.50;6.83;;;4.80;74.10;;;;;;5009175;28;20827;-58
2021/04/25 05:00:05;;;;;;;11.70;6.30;;;4.80;73.90;;;;;;5009010;28;21176;-58
2021/04/25 05:02:31;;;;;;;15.83;7.00;;;4.80;75.00;;;;;;4999678;28;20185;-57
2021/04/25 05:04:56;;;;;;;12.67;7.30;;;4.80;76.30;;;;;;5000333;28;20967;-58
2021/04/25 05:07:22;;;;;;;13.23;6.83;;;4.80;76.40;;;;;;5008703;28;20190;-58
2021/04/25 05:09:48;;;;;;;19.70;6.73;;;4.90;75.40;;;;;;5010299;28;20200;-58
2021/04/25 05:12:13;;;;;;;12.60;7.50;;;4.90;75.40;;;;;;5010255;28;20218;-57
2021/04/25 05:14:39;;;;;;;14.87;6.87;;;5.00;75.30;;;;;;5002314;28;20214;-58
2021/04/25 05:17:05;;;;;;;16.73;7.20;;;5.00;74.50;;;;;;5008498;28;20222;-58
2021/04/25 05:19:30;;;;;;;14.63;7.70;;;5.00;74.80;;;;;;5009006;28;20192;-57
2021/04/25 05:21:56;;;;;;;18.63;7.80;;;5.10;76.30;;;;;;5010172;28;20176;-57
2021/04/25 05:24:22;;;;;;;12.43;6.17;;;5.10;76.20;;;;;;5007779;28;20176;-60
2021/04/25 05:26:47;;;;;;;11.57;6.57;;;5.20;76.40;;;;;;5004123;28;20196;-58
2021/04/25 05:29:13;;;;;;;14.30;6.90;;;5.30;75.00;;;;;;5000541;28;21015;-58
2021/04/25 05:31:39;;;;;;;13.03;7.20;;;5.40;74.20;;;;;;5004685;28;20239;-57
2021/04/25 05:34:04;;;;;;;10.70;6.93;;;5.50;75.30;;;;;;4999995;28;20165;-59
2021/04/25 05:36:30;;;;;;;15.80;7.20;;;5.60;75.60;;;;;;5002100;28;20203;-58
2021/04/25 05:38:56;;;;;;;16.37;7.10;;;5.60;74.60;;;;;;5005810;28;20615;-59
2021/04/25 05:41:21;;;;;;;13.40;8.20;;;5.70;73.80;;;;;;4994339;28;20195;-60
2021/04/25 05:43:47;;;;;;;12.50;7.37;;;5.70;72.70;;;;;;5004134;28;20690;-57
2021/04/25 05:46:14;;;;;;;15.67;8.20;;;5.70;72.10;;;;;;5004195;28;20612;-55
2021/04/25 05:48:42;;;;;;;14.60;7.83;;;5.70;72.80;;;;;;5001358;28;20592;-54
2021/04/25 05:51:07;;;;;;;13.17;8.13;;;5.70;72.20;;;;;;5007498;28;20458;-58
2021/04/25 05:53:33;;;;;;;13.70;7.90;;;5.60;73.10;;;;;;5004184;28;20859;-57
2021/04/25 05:55:59;;;;;;;15.13;7.40;;;5.60;73.80;;;;;;5001275;28;20223;-57
2021/04/25 05:58:24;;;;;;;11.53;7.00;;;5.60;74.40;;;;;;4992200;28;20172;-56
2021/04/25 06:00:50;;;;;;;20.67;8.13;;;5.60;74.60;;;;;;5002728;28;20181;-57
2021/04/25 06:03:16;;;;;;;26.40;8.60;;;5.60;74.60;;;;;;5004076;28;20536;-59
2021/04/25 06:05:41;;;;;;;14.80;7.40;;;5.60;74.10;;;;;;5007733;28;20276;-59
2021/04/25 06:08:07;;;;;;;10.87;7.00;;;5.70;74.50;;;;;;5007869;28;20825;-63
2021/04/25 06:10:32;;;;;;;18.07;7.33;;;5.90;73.90;;;;;;4998696;28;20203;-60
2021/04/25 06:12:58;;;;;;;20.70;7.53;;;6.00;73.60;;;;;;5006495;28;20185;-59
2021/04/25 06:15:25;;;;;;;12.67;7.33;;;6.20;72.10;;;;;;4999263;28;20633;-59
2021/04/25 06:17:51;;;;;;;19.83;7.90;;;6.30;71.70;;;;;;5003766;28;20200;-61
2021/04/25 06:20:17;;;;;;;17.20;8.33;;;6.50;73.20;;;;;;5011346;28;20435;-59
2021/04/25 06:22:44;;;;;;;17.83;7.77;;;6.70;72.60;;;;;;5009418;28;20935;-60
2021/04/25 06:25:11;;;;;;;15.90;8.07;;;6.90;71.30;;;;;;5003095;28;20994;-60
2021/04/25 06:27:37;;;;;;;20.47;8.43;;;7.10;69.60;;;;;;5007882;28;20439;-60
2021/04/25 06:30:04;;;;;;;17.90;8.10;;;7.30;68.00;;;;;;5008390;28;20462;-61
2021/04/25 06:32:30;;;;;;;13.80;8.03;;;7.50;66.50;;;;;;5003007;28;20521;-60
2021/04/25 06:34:55;;;;;;;16.93;8.50;;;7.50;65.20;;;;;;5003538;28;20518;-58
2021/04/25 06:37:23;;;;;;;14.03;7.50;;;7.70;65.70;;;;;;5004499;28;20211;-59
2021/04/25 06:39:49;;;;;;;17.40;8.40;;;7.90;64.50;;;;;;5004725;28;20172;-59
2021/04/25 06:42:15;;;;;;;16.90;8.57;;;8.10;62.90;;;;;;5010796;28;20489;-59
2021/04/25 06:44:41;;;;;;;14.47;8.20;;;8.20;59.30;;;;;;4999025;28;20180;-60
2021/04/25 06:47:06;;;;;;;13.80;6.93;;;8.40;58.50;;;;;;4999463;28;20489;-58
2021/04/25 06:49:32;;;;;;;19.00;8.60;;;8.50;58.00;;;;;;5003627;28;20342;-59
2021/04/25 06:52:00;;;;;;;18.33;7.83;;;8.60;57.40;;;;;;5006808;28;20180;-61
2021/04/25 06:54:25;;;;;;;15.33;8.77;;;8.70;58.00;;;;;;4996664;28;20181;-59
2021/04/25 06:56:51;;;;;;;22.70;8.53;;;8.80;57.70;;;;;;5008683;28;20527;-59
2021/04/25 06:59:17;;;;;;;10.83;7.57;;;8.90;57.10;;;;;;5005015;28;20195;-59
2021/04/25 07:01:43;;;;;;;12.50;8.50;;;9.10;57.30;;;;;;5005656;28;20863;-59
2021/04/25 07:04:08;;;;;;;12.10;7.50;;;9.10;55.60;;;;;;5008981;28;20192;-59
2021/04/25 07:06:34;;;;;;;16.13;8.27;;;9.10;56.20;;;;;;5007421;28;20201;-59
2021/04/25 07:09:01;;;;;;;17.70;7.60;;;9.30;56.50;;;;;;5006277;28;20200;-60
2021/04/25 07:11:26;;;;;;;12.53;7.23;;;9.30;56.80;;;;;;5004274;28;20172;-59
2021/04/25 07:13:52;;;;;;;17.37;7.50;;;9.50;56.40;;;;;;5002804;28;20432;-59
2021/04/25 07:16:18;;;;;;;18.43;7.70;;;9.60;56.30;;;;;;4999678;28;20192;-58
2021/04/25 07:18:43;;;;;;;15.80;6.63;;;9.80;55.90;;;;;;5001853;28;20188;-59
2021/04/25 07:21:09;;;;;;;16.90;7.53;;;10.00;54.10;;;;;;5004589;28;20573;-59
2021/04/25 07:23:35;;;;;;;17.03;6.97;;;10.10;53.70;;;;;;5006304;28;20665;-59
2021/04/25 07:26:00;;;;;;;10.07;7.07;;;10.20;53.00;;;;;;5002513;28;20173;-59
2021/04/25 07:28:26;;;;;;;21.10;7.53;;;10.30;52.90;;;;;;5003273;28;20264;-58
2021/04/25 07:30:52;;;;;;;13.63;7.03;;;10.50;52.50;;;;;;5002447;28;20200;-59
2021/04/25 07:33:20;;;;;;;12.77;7.50;;;10.60;52.20;;;;;;5003588;28;20431;-58
2021/04/25 07:35:46;;;;;;;15.70;7.43;;;10.70;52.20;;;;;;5008222;28;20513;-58
2021/04/25 07:38:12;;;;;;;13.07;7.60;;;10.80;51.00;;;;;;5007491;28;20957;-59
2021/04/25 07:40:41;;;;;;;19.23;6.77;;;11.00;50.90;;;;;;5011228;28;23108;-60
2021/04/25 07:43:08;;;;;;;12.03;7.00;;;11.00;50.40;;;;;;5008505;28;20239;-58
2021/04/25 07:45:34;;;;;;;12.70;7.73;;;11.10;49.70;;;;;;5004412;28;21095;-60
2021/04/25 07:48:00;;;;;;;10.13;6.97;;;11.20;49.70;;;;;;5008080;28;20493;-59
2021/04/25 07:50:26;;;;;;;16.50;8.00;;;11.40;48.40;;;;;;4998181;28;20461;-59
2021/04/25 07:52:51;;;;;;;10.80;6.60;;;11.50;48.90;;;;;;5003628;28;20423;-60
2021/04/25 07:55:18;;;;;;;16.03;6.53;;;11.60;48.90;;;;;;5010439;28;20767;-59
2021/04/25 07:57:44;;;;;;;15.50;7.63;;;11.80;48.60;;;;;;5009208;28;20560;-59
2021/04/25 08:00:12;;;;;;;16.93;6.93;;;11.90;48.30;;;;;;5006306;28;20435;-58
2021/04/25 08:02:38;;;;;;;15.70;7.93;;;12.10;47.80;;;;;;5000367;28;20307;-59
2021/04/25 08:05:08;;;;;;;12.37;7.50;;;12.20;46.90;;;;;;5005846;28;20503;-59
2021/04/25 08:07:34;;;;;;;12.90;6.63;;;12.40;46.10;;;;;;4998844;28;20254;-59
2021/04/25 08:10:00;;;;;;;17.70;6.87;;;12.50;45.70;;;;;;5005174;28;21094;-59
2021/04/25 08:12:25;;;;;;;16.27;7.30;;;12.70;45.40;;;;;;5002685;28;20431;-57
2021/04/25 08:14:51;;;;;;;13.67;7.90;;;12.80;44.80;;;;;;4993869;28;20263;-58
2021/04/25 08:17:17;;;;;;;11.83;7.13;;;12.90;44.30;;;;;;5017058;28;20200;-59
2021/04/25 08:19:42;;;;;;;12.63;6.70;;;12.90;44.50;;;;;;5020720;28;20187;-59
2021/04/25 08:22:08;;;;;;;16.00;8.47;;;13.00;44.60;;;;;;5023740;28;20447;-58
2021/04/25 08:24:35;;;;;;;14.33;6.73;;;13.00;44.60;;;;;;5022639;28;20203;-60
2021/04/25 08:27:00;;;;;;;15.73;6.97;;;13.10;45.00;;;;;;5019938;28;20205;-58
2021/04/25 08:29:26;;;;;;;14.77;7.90;;;13.20;45.20;;;;;;5020130;28;20571;-58
2021/04/25 08:31:52;;;;;;;15.57;7.67;;;13.30;44.70;;;;;;5025613;28;20194;-59
2021/04/25 08:34:19;;;;;;;16.10;7.37;;;13.40;44.00;;;;;;5014273;28;20715;-59
2021/04/25 08:36:46;;;;;;;17.23;8.10;;;13.40;43.20;;;;;;5007511;28;20470;-58
2021/04/25 08:39:12;;;;;;;12.20;7.00;;;13.20;42.10;;;;;;5008123;28;20432;-58
2021/04/25 08:41:41;;;;;;;14.13;7.17;;;13.10;43.60;;;;;;5002872;28;20444;-58
2021/04/25 08:44:08;;;;;;;18.90;6.80;;;13.20;44.90;;;;;;5002877;28;20518;-58
2021/04/25 08:46:34;;;;;;;17.87;6.90;;;13.40;45.50;;;;;;5004289;28;20455;-61
2021/04/25 08:49:00;;;;;;;14.10;6.80;;;13.50;44.20;;;;;;4998073;28;20431;-58
2021/04/25 08:51:27;;;;;;;12.83;7.10;;;13.70;44.20;;;;;;5000513;28;20435;-57
2021/04/25 08:53:52;;;;;;;15.77;8.10;;;13.80;44.30;;;;;;5007766;28;20654;-57
2021/04/25 08:56:20;;;;;;;13.17;7.60;;;14.00;44.20;;;;;;5003677;28;20490;-57
2021/04/25 08:58:48;;;;;;;11.53;6.47;;;14.10;44.00;;;;;;5005864;28;20187;-58
2021/04/25 09:01:14;;;;;;;14.00;7.60;;;14.20;43.10;;;;;;5006195;28;20745;-58
2021/04/25 09:03:40;;;;;;;12.33;6.90;;;14.40;43.10;;;;;;4995998;28;20462;-58
2021/04/25 09:06:07;;;;;;;11.07;6.57;;;14.50;43.20;;;;;;5007133;28;20431;-57
2021/04/25 09:08:42;;;;;;;16.63;7.47;;;14.70;43.50;;;;;;5003304;28;20864;-58
2021/04/25 09:11:08;;;;;;;10.47;7.10;;;14.80;42.80;;;;;;4993149;28;20473;-59
2021/04/25 09:13:33;;;;;;;17.13;8.30;;;14.90;42.50;;;;;;5008188;28;20431;-58
2021/04/25 09:16:10;;;;;;;12.33;7.87;;;14.90;42.70;;;;;;5008784;28;20653;-58
2021/04/25 09:18:36;;;;;;;13.83;7.53;;;14.90;41.50;;;;;;4998953;28;20175;-58
2021/04/25 09:21:11;;;;;;;10.60;7.17;;;14.80;41.50;;;;;;5009625;28;20502;-59
2021/04/25 09:23:37;;;;;;;12.10;7.40;;;14.90;42.10;;;;;;5003982;28;20176;-59
2021/04/25 09:26:09;;;;;;;11.00;7.20;;;14.90;41.20;;;;;;5001026;28;20427;-60
2021/04/25 09:28:37;;;;;;;13.67;7.33;;;15.00;40.30;;;;;;4989996;28;20238;-60
2021/04/25 09:31:14;;;;;;;11.87;6.53;;;15.00;40.90;;;;;;4995889;28;21220;-57
2021/04/25 09:33:57;;;;;;;18.23;7.00;;;15.20;41.50;;;;;;4984131;28;20451;-58
2021/04/25 09:36:25;;;;;;;14.00;7.10;;;15.40;41.80;;;;;;4997820;28;20530;-58
2021/04/25 09:39:07;;;;;;;10.10;6.57;;;15.70;41.60;;;;;;5006415;28;20826;-59
2021/04/25 09:41:33;;;;;;;15.47;7.50;;;15.80;41.20;;;;;;5006406;28;20998;-58
2021/04/25 09:44:02;;;;;;;17.73;6.90;;;15.90;39.30;;;;;;5002521;28;20488;-58
2021/04/25 09:46:54;;;;;;;18.93;8.37;;;15.80;38.60;;;;;;5006695;28;20459;-58
2021/04/25 09:49:37;;;;;;;14.30;7.10;;;15.70;39.40;;;;;;5000191;28;20455;-59
2021/04/25 09:52:05;;;;;;;11.30;7.30;;;15.80;39.40;;;;;;5002173;28;20442;-59
2021/04/25 09:54:31;;;;;;;14.67;6.80;;;15.80;40.00;;;;;;4997515;28;20699;-58
2021/04/25 09:56:59;;;;;;;16.20;7.00;;;16.00;40.10;;;;;;5004413;28;21008;-57
2021/04/25 09:59:27;;;;;;;10.23;6.80;;;16.20;39.70;;;;;;5000708;28;20447;-59
2021/04/25 10:02:08;;;;;;;15.03;6.60;;;16.30;38.50;;;;;;5007276;28;20435;-58
2021/04/25 10:04:37;;;;;;;13.30;8.00;;;16.30;37.90;;;;;;4996753;28;20441;-60
2021/04/25 10:07:10;;;;;;;15.10;7.50;;;16.30;38.00;;;;;;5006491;28;20441;-59
2021/04/25 10:09:37;;;;;;;14.23;6.70;;;16.30;36.70;;;;;;5006102;28;20467;-59
2021/04/25 10:12:04;;;;;;;16.03;6.90;;;16.40;37.00;;;;;;5005150;28;20435;-57
2021/04/25 10:14:32;;;;;;;13.47;7.47;;;16.50;38.30;;;;;;5002732;28;20452;-56
2021/04/25 10:16:59;;;;;;;12.10;8.23;;;16.60;38.10;;;;;;5006637;28;20449;-59
2021/04/25 10:19:26;;;;;;;17.73;8.23;;;16.40;35.10;;;;;;5007278;28;20776;-56
2021/04/25 10:21:52;;;;;;;12.97;6.90;;;16.30;37.00;;;;;;5007397;28;20431;-58
2021/04/25 10:24:20;;;;;;;13.03;6.97;;;16.40;39.00;;;;;;4998440;28;20466;-57
2021/04/25 10:27:00;;;;;;;12.23;7.83;;;16.70;39.60;;;;;;5008385;28;20966;-59
2021/04/25 10:29:32;;;;;;;14.23;7.60;;;16.90;38.40;;;;;;5006603;28;22323;-60
2021/04/25 10:32:01;;;;;;;13.53;7.13;;;17.00;36.20;;;;;;5016360;28;20427;-58
2021/04/25 10:34:27;;;;;;;12.37;7.00;;;17.00;36.60;;;;;;5000031;28;20427;-58
2021/04/25 10:36:59;;;;;;;12.33;6.53;;;17.10;36.80;;;;;;5003778;28;20466;-58
2021/04/25 10:39:47;;;;;;;12.80;7.23;;;17.30;38.50;;;;;;5002297;28;20292;-58
2021/04/25 10:42:28;;;;;;;13.33;6.77;;;17.70;38.50;;;;;;5001273;28;21837;-59
2021/04/25 10:45:02;;;;;;;12.23;6.50;;;18.00;37.50;;;;;;5010544;28;20522;-59
2021/04/25 10:47:35;;;;;;;13.20;7.50;;;18.20;38.20;;;;;;5002864;28;20517;-60
2021/04/25 10:50:22;;;;;;;15.60;5.90;;;18.40;37.20;;;;;;5020285;28;20458;-58
2021/04/25 10:52:51;;;;;;;12.00;6.87;;;18.60;37.60;;;;;;4999867;28;21031;-58
2021/04/25 10:55:29;;;;;;;14.33;5.97;;;18.80;37.60;;;;;;5002163;28;20430;-59
2021/04/25 10:57:55;;;;;;;8.80;6.30;;;18.80;37.50;;;;;;5008745;28;20933;-60
2021/04/25 11:00:47;;;;;;;13.70;6.13;;;18.80;37.00;;;;;;5009663;28;20431;-60
2021/04/25 11:03:13;;;;;;;13.20;6.53;;;18.70;36.80;;;;;;5003458;28;20180;-60
2021/04/25 11:05:39;;;;;;;11.20;6.53;;;18.70;36.10;;;;;;4996347;28;20441;-59
2021/04/25 11:08:17;;;;;;;11.10;6.17;;;18.60;36.50;;;;;;4997457;28;20189;-58
2021/04/25 11:11:07;;;;;;;12.10;6.10;;;18.60;36.90;;;;;;5007878;28;20471;-60
2021/04/25 11:13:45;;;;;;;10.03;6.63;;;18.80;37.70;;;;;;5007406;28;20435;-59
2021/04/25 11:16:19;;;;;;;11.40;6.10;;;19.00;37.20;;;;;;4995791;28;20462;-60
2021/04/25 11:18:51;;;;;;;13.17;7.00;;;19.20;37.30;;;;;;5001175;28;20428;-60
2021/04/25 11:21:29;;;;;;;16.57;6.43;;;19.30;36.60;;;;;;5003334;28;20463;-60
2021/04/25 11:23:57;;;;;;;15.77;6.73;;;19.40;36.40;;;;;;4996947;28;20435;-60
2021/04/25 11:26:37;;;;;;;10.17;5.73;;;19.50;36.10;;;;;;5000326;28;20507;-61
2021/04/25 11:29:09;;;;;;;10.53;6.50;;;19.50;34.70;;;;;;5002308;28;20432;-62
2021/04/25 11:31:44;;;;;;;13.20;6.90;;;19.40;34.90;;;;;;5001296;28;21051;-61
2021/04/25 11:34:59;;;;;;;13.20;6.17;;;19.30;35.80;;;;;;4997085;28;20431;-60
2021/04/25 11:37:26;;;;;;;10.93;6.50;;;19.30;35.90;;;;;;4999528;28;20769;-61
2021/04/25 11:40:01;;;;;;;13.70;7.37;;;19.50;35.80;;;;;;5001629;28;20427;-60
2021/04/25 11:42:49;;;;;;;11.80;6.40;;;19.60;35.20;;;;;;5002472;28;20426;-61
2021/04/25 11:45:20;;;;;;;9.57;6.40;;;19.80;35.70;;;;;;5002379;28;20474;-60
2021/04/25 11:47:51;;;;;;;11.57;6.53;;;20.00;35.80;;;;;;5007951;28;20451;-62
2021/04/25 11:50:25;;;;;;;15.37;6.93;;;20.20;34.10;;;;;;5007798;28;20458;-61
2021/04/25 11:52:51;;;;;;;13.57;6.10;;;20.30;33.40;;;;;;5002476;28;20523;-61
2021/04/25 11:55:19;;;;;;;9.87;5.77;;;20.50;34.30;;;;;;5004994;28;20527;-60
2021/04/25 11:57:50;;;;;;;14.87;6.70;;;20.80;35.40;;;;;;5006819;28;20207;-60
2021/04/25 12:00:31;;;;;;;12.23;6.30;;;21.00;34.00;;;;;;5005450;28;20435;-60
2021/04/25 12:03:01;;;;;;;9.50;5.00;;;21.00;32.40;;;;;;5002186;28;20450;-59
2021/04/25 12:05:38;;;;;;;10.97;6.20;;;21.20;33.10;;;;;;5007497;28;21167;-60
2021/04/25 12:08:09;;;;;;;10.90;6.60;;;21.20;32.40;;;;;;4996049;28;20826;-61
2021/04/25 12:10:47;;;;;;;9.70;6.27;;;21.30;32.50;;;;;;4994660;28;20868;-61
2021/04/25 12:13:14;;;;;;;12.47;6.47;;;21.40;32.80;;;;;;5000400;28;20431;-60
2021/04/25 12:16:02;;;;;;;8.57;6.00;;;21.50;32.80;;;;;;4996989;28;22357;-60
2021/04/25 12:18:37;;;;;;;8.87;5.73;;;21.50;31.00;;;;;;5004787;28;20428;-60
2021/04/25 12:21:06;;;;;;;12.93;6.13;;;21.60;31.70;;;;;;4994789;28;20433;-60
2021/04/25 12:23:37;;;;;;;9.60;6.20;;;21.60;31.50;;;;;;5003091;28;21161;-59
2021/04/25 12:26:08;;;;;;;8.73;5.60;;;21.70;32.10;;;;;;4998244;28;20927;-60
2021/04/25 12:29:06;;;;;;;7.77;5.40;;;21.80;30.70;;;;;;4970854;28;20828;-60
2021/04/25 12:31:46;;;;;;;8.73;5.40;;;21.90;31.40;;;;;;5032681;28;20447;-59
2021/04/25 12:34:15;;;;;;;9.40;5.73;;;22.00;31.60;;;;;;5000839;28;20446;-61
2021/04/25 12:36:51;;;;;;;11.00;6.10;;;22.10;31.00;;;;;;5001670;28;20463;-61
2021/04/25 12:39:18;;;;;;;13.80;6.20;;;22.20;30.00;;;;;;5004134;28;20666;-60
2021/04/25 12:41:53;;;;;;;10.93;4.97;;;22.30;30.40;;;;;;5005922;28;20422;-60
2021/04/25 12:44:33;;;;;;;9.70;5.90;;;22.40;29.50;;;;;;5002423;28;20522;-60
2021/04/25 12:46:59;;;;;;;13.80;5.60;;;22.40;28.20;;;;;;4997522;28;20875;-59
2021/04/25 12:49:42;;;;;;;7.30;5.30;;;22.00;28.30;;;;;;4996485;28;20964;-60